createdAt,value
2019-03-03T05:04:06.015Z,5.953064
2019-03-03T05:07:33.973Z,6.003418
2019-03-03T05:11:01.870Z,6.083984
2019-03-03T05:14:29.784Z,6.083984
2019-03-03T05:17:57.800Z,6.194763
2019-03-03T05:21:26.692Z,6.235046
2019-03-03T05:24:54.588Z,6.315613
2019-03-03T05:28:22.489Z,6.335754
2019-03-03T05:31:50.372Z,6.376038
2019-03-03T05:35:18.274Z,6.365967
2019-03-03T05:38:46.264Z,6.416321
2019-03-03T05:42:14.158Z,6.426392
2019-03-03T05:45:42.057Z,6.456604
2019-03-03T05:49:09.950Z,6.5271
2019-03-03T05:52:37.849Z,6.567383
2019-03-03T05:56:05.752Z,6.627808
2019-03-03T05:59:33.649Z,6.637878
2019-03-03T06:03:02.580Z,6.637878
2019-03-03T06:06:30.495Z,6.637878
2019-03-03T06:09:58.404Z,6.698303
2019-03-03T06:13:26.299Z,6.728516
2019-03-03T06:16:54.201Z,6.809082
2019-03-03T06:20:23.103Z,6.859436
2019-03-03T06:23:51.977Z,6.879578
2019-03-03T06:27:19.876Z,6.929932
2019-03-03T06:30:47.789Z,6.970215
2019-03-03T06:34:15.661Z,7.000427
2019-03-03T06:37:43.571Z,7.080994
2019-03-03T06:41:12.353Z,7.070923
2019-03-03T06:44:40.240Z,7.131348
2019-03-03T06:48:08.741Z,7.131348
2019-03-03T06:51:37.486Z,7.181702
2019-03-03T06:55:14.081Z,7.221985
2019-03-03T06:58:42.233Z,7.262268
2019-03-03T07:02:10.135Z,7.28241
2019-03-03T07:05:38.046Z,7.342834
2019-03-03T07:09:05.918Z,7.362976
2019-03-03T07:12:33.829Z,7.373047
2019-03-03T07:16:01.734Z,7.423401
2019-03-03T07:19:29.617Z,7.473755
2019-03-03T07:22:57.525Z,7.473755
2019-03-03T07:26:25.421Z,7.554321
2019-03-03T07:29:53.307Z,7.574463
2019-03-03T07:33:21.208Z,7.624817
2019-03-03T07:36:49.101Z,7.624817
2019-03-03T07:40:16.997Z,7.644958
2019-03-03T07:43:44.897Z,7.675171
2019-03-03T07:47:12.801Z,7.655029
2019-03-03T07:50:40.700Z,7.685242
2019-03-03T07:54:08.587Z,7.725525
2019-03-03T07:57:36.488Z,7.765808
2019-03-03T08:01:04.419Z,7.866516
2019-03-03T08:04:32.304Z,7.906799
2019-03-03T08:08:01.204Z,7.937012
2019-03-03T08:11:29.097Z,7.91687
2019-03-03T08:14:56.984Z,7.906799
2019-03-03T08:18:24.882Z,7.987366
2019-03-03T08:21:52.784Z,8.03772
2019-03-03T08:25:21.696Z,8.03772
2019-03-03T08:28:49.577Z,8.017578
2019-03-03T08:32:17.477Z,8.088074
2019-03-03T08:35:46.375Z,8.057861
2019-03-03T08:39:14.263Z,8.047791
2019-03-03T08:42:42.170Z,8.098145
2019-03-03T08:46:10.075Z,8.118286
2019-03-03T08:49:37.956Z,8.138428
2019-03-03T08:53:06.856Z,8.128357
2019-03-03T08:56:34.760Z,8.128357
2019-03-03T09:00:02.644Z,8.188782
2019-03-03T09:03:30.554Z,8.208923
2019-03-03T09:06:58.467Z,8.208923
2019-03-03T09:10:26.352Z,8.259277
2019-03-03T09:13:54.269Z,8.239136
2019-03-03T09:17:22.179Z,8.279419
2019-03-03T09:20:50.579Z,8.319702
2019-03-03T09:24:19.373Z,8.309631
2019-03-03T09:27:47.541Z,8.339844
2019-03-03T09:31:15.403Z,8.349915
2019-03-03T09:34:43.316Z,8.390198
2019-03-03T09:38:11.233Z,8.440552
2019-03-03T09:41:39.111Z,8.440552
2019-03-03T09:45:07.014Z,8.521118
2019-03-03T09:48:34.915Z,8.551331
2019-03-03T09:52:02.800Z,8.531189
2019-03-03T09:55:30.773Z,8.551331
2019-03-03T09:58:58.691Z,8.591614
2019-03-03T10:02:26.574Z,8.601685
2019-03-03T10:05:54.487Z,8.702393
2019-03-03T10:09:22.484Z,8.722534
2019-03-03T10:12:50.359Z,8.702393
2019-03-03T10:16:18.259Z,8.742676
2019-03-03T10:19:46.163Z,8.722534
2019-03-03T10:23:15.030Z,8.712463
2019-03-03T10:26:42.939Z,8.702393
2019-03-03T10:30:11.150Z,8.742676
2019-03-03T10:33:39.054Z,8.803101
2019-03-03T10:37:07.974Z,8.772888
2019-03-03T10:40:36.860Z,8.752747
2019-03-03T10:44:04.752Z,8.742676
2019-03-03T10:47:32.749Z,8.813171
2019-03-03T10:51:00.728Z,8.994446
2019-03-03T10:54:29.621Z,8.984375
2019-03-03T10:57:57.550Z,8.984375
2019-03-03T11:01:25.472Z,9.034729
2019-03-03T11:04:53.355Z,9.085083
2019-03-03T11:08:21.286Z,9.105225
2019-03-03T11:11:49.264Z,9.0448
2019-03-03T11:15:18.555Z,9.0448
2019-03-03T11:18:55.584Z,9.075012
2019-03-03T11:22:19.071Z,9.135437
2019-03-03T11:25:46.977Z,9.17572
2019-03-03T11:29:14.883Z,9.115295
2019-03-03T11:32:42.803Z,9.17572
2019-03-03T11:36:10.706Z,9.135437
2019-03-03T11:39:38.626Z,9.155579
2019-03-03T11:43:06.576Z,9.185791
2019-03-03T11:46:34.475Z,9.145508
2019-03-03T11:50:02.389Z,9.064941
2019-03-03T11:53:30.316Z,9.0448
2019-03-03T11:56:58.270Z,9.064941
2019-03-03T12:00:26.207Z,9.034729
2019-03-03T12:03:54.106Z,8.964233
2019-03-03T12:07:21.992Z,9.115295
2019-03-03T12:10:49.889Z,9.155579
2019-03-03T12:14:17.796Z,9.226074
2019-03-03T12:17:45.690Z,9.286499
2019-03-03T12:21:13.592Z,9.467773
2019-03-03T12:24:41.501Z,9.598694
2019-03-03T12:28:09.388Z,9.769897
2019-03-03T12:31:37.302Z,9.840393
2019-03-03T12:35:05.213Z,9.810181
2019-03-03T12:38:33.112Z,9.80011
2019-03-03T12:42:01.012Z,9.749756
2019-03-03T12:45:29.917Z,9.769897
2019-03-03T12:48:57.806Z,9.749756
2019-03-03T12:52:25.687Z,9.719543
2019-03-03T12:55:53.604Z,9.719543
2019-03-03T12:59:22.516Z,9.769897
2019-03-03T13:02:50.413Z,9.779968
2019-03-03T13:06:24.217Z,9.900818
2019-03-03T13:09:49.207Z,9.850464
2019-03-03T13:13:17.103Z,9.900818
2019-03-03T13:16:45.012Z,10.031738
2019-03-03T13:20:12.922Z,10.162659
2019-03-03T13:23:40.806Z,10.233154
2019-03-03T13:27:08.714Z,10.202942
2019-03-03T13:30:36.619Z,10.213013
2019-03-03T13:34:04.547Z,10.202942
2019-03-03T13:37:32.454Z,10.233154
2019-03-03T13:41:00.538Z,10.30365
2019-03-03T13:44:28.439Z,10.273438
2019-03-03T13:47:56.348Z,10.313721
2019-03-03T13:51:24.301Z,10.354004
2019-03-03T13:54:53.171Z,10.343933
2019-03-03T13:58:21.071Z,10.233154
2019-03-03T14:01:49.000Z,10.213013
2019-03-03T14:05:16.864Z,10.162659
2019-03-03T14:08:44.768Z,10.102234
2019-03-03T14:12:12.673Z,10.082092
2019-03-03T14:15:40.556Z,10.061951
2019-03-03T14:19:08.462Z,10.092163
2019-03-03T14:22:37.350Z,10.092163
2019-03-03T14:26:06.261Z,10.061951
2019-03-03T14:29:35.158Z,10.061951
2019-03-03T14:33:03.086Z,10.102234
2019-03-03T14:36:30.973Z,10.082092
2019-03-03T14:39:58.875Z,10.05188
2019-03-03T14:43:26.782Z,10.031738
2019-03-03T14:46:54.687Z,9.941101
2019-03-03T14:50:22.616Z,9.880676
2019-03-03T14:53:50.553Z,9.850464
2019-03-03T14:57:18.454Z,9.80011
2019-03-03T15:00:47.424Z,9.749756
2019-03-03T15:04:15.393Z,9.719543
2019-03-03T15:07:43.349Z,9.669189
2019-03-03T15:11:12.466Z,9.669189
2019-03-03T15:14:40.321Z,9.689331
2019-03-03T15:18:08.256Z,9.659119
2019-03-03T15:21:37.416Z,9.588623
2019-03-03T15:25:06.336Z,9.568481
2019-03-03T15:28:34.245Z,9.568481
2019-03-03T15:32:02.224Z,9.54834
2019-03-03T15:35:30.125Z,9.508057
2019-03-03T15:38:59.002Z,9.477844
2019-03-03T15:42:26.954Z,9.437561
2019-03-03T15:45:54.889Z,9.397278
2019-03-03T15:49:22.813Z,9.336853
2019-03-03T15:52:51.744Z,9.286499
2019-03-03T15:56:19.737Z,9.256287
2019-03-03T15:59:47.726Z,9.17572
2019-03-03T16:03:15.669Z,9.105225
2019-03-03T16:06:44.776Z,9.034729
2019-03-03T16:10:12.672Z,8.954163
2019-03-03T16:13:40.579Z,8.863525
2019-03-03T16:17:08.505Z,8.742676
2019-03-03T16:20:36.442Z,8.682251
2019-03-03T16:24:04.354Z,8.591614
2019-03-03T16:27:33.267Z,8.531189
2019-03-03T16:31:01.191Z,8.500977
2019-03-03T16:34:29.179Z,8.440552
2019-03-03T16:37:57.163Z,8.390198
2019-03-03T16:41:25.091Z,8.349915
2019-03-03T16:44:53.033Z,8.309631
2019-03-03T16:48:20.973Z,8.279419
2019-03-03T16:51:48.905Z,8.259277
2019-03-03T16:55:16.806Z,8.208923
2019-03-03T16:58:44.724Z,8.188782
2019-03-03T17:02:12.631Z,8.16864
2019-03-03T17:05:40.712Z,8.138428
2019-03-03T17:09:08.588Z,8.128357
2019-03-03T17:12:37.482Z,8.138428
2019-03-03T17:16:05.390Z,8.118286
2019-03-03T17:19:33.267Z,8.118286
2019-03-03T17:23:01.171Z,8.118286
2019-03-03T17:26:29.061Z,8.088074
2019-03-03T17:29:56.952Z,8.057861
2019-03-03T17:33:24.853Z,8.047791
2019-03-03T17:36:52.750Z,8.03772
2019-03-03T17:40:20.631Z,7.977295
2019-03-03T17:43:50.510Z,7.957153
2019-03-03T17:47:18.407Z,7.947083
2019-03-03T17:50:46.294Z,7.947083
2019-03-03T17:54:14.206Z,7.937012
2019-03-03T17:57:42.116Z,7.906799
2019-03-03T18:01:10.005Z,7.876587
2019-03-03T18:04:37.884Z,7.866516
2019-03-03T18:08:05.783Z,7.856445
2019-03-03T18:11:33.683Z,7.866516
2019-03-03T18:15:01.562Z,7.836304
2019-03-03T18:18:29.466Z,7.796021
2019-03-03T18:21:58.370Z,7.796021
2019-03-03T18:25:26.249Z,7.775879
2019-03-03T18:28:54.150Z,7.775879
2019-03-03T18:32:22.052Z,7.775879
2019-03-03T18:35:49.940Z,7.765808
2019-03-03T18:39:17.831Z,7.755737
2019-03-03T18:42:45.730Z,7.765808
2019-03-03T18:46:13.631Z,7.755737
2019-03-03T18:49:41.514Z,7.755737
2019-03-03T18:53:09.416Z,7.765808
2019-03-03T18:56:37.596Z,7.775879
2019-03-03T19:00:05.480Z,7.775879
2019-03-03T19:03:34.367Z,7.775879
2019-03-03T19:07:02.287Z,7.796021
2019-03-03T19:10:30.183Z,7.765808
2019-03-03T19:13:58.060Z,7.765808
2019-03-03T19:17:25.961Z,7.755737
2019-03-03T19:20:54.305Z,7.735596
2019-03-03T19:24:22.222Z,7.735596
2019-03-03T19:27:50.242Z,7.755737
2019-03-03T19:31:18.156Z,7.755737
2019-03-03T19:34:47.033Z,7.796021
2019-03-03T19:38:14.926Z,7.796021
2019-03-03T19:41:42.828Z,7.765808
2019-03-03T19:45:10.725Z,7.775879
2019-03-03T19:48:38.607Z,7.775879
2019-03-03T19:52:06.529Z,7.765808
2019-03-03T19:55:34.418Z,7.775879
2019-03-03T19:59:02.319Z,7.775879
2019-03-03T20:02:31.220Z,7.775879
2019-03-03T20:05:59.120Z,7.775879
2019-03-03T20:09:27.003Z,7.796021
2019-03-03T20:12:54.896Z,7.836304
2019-03-03T20:16:22.804Z,7.836304
2019-03-03T20:19:50.695Z,7.836304
2019-03-03T20:23:18.590Z,7.876587
2019-03-03T20:26:46.495Z,7.91687
2019-03-03T20:30:14.400Z,7.937012
2019-03-03T20:33:42.325Z,8.007507
2019-03-03T20:37:10.238Z,8.03772
2019-03-03T20:40:39.339Z,8.057861
2019-03-03T20:44:07.024Z,8.088074
2019-03-03T20:47:34.940Z,8.098145
2019-03-03T20:51:02.837Z,8.128357
2019-03-03T20:54:30.739Z,8.158569
2019-03-03T20:57:58.642Z,8.158569
2019-03-03T21:01:26.533Z,8.208923
2019-03-03T21:04:54.407Z,8.239136
2019-03-03T21:08:22.314Z,8.28949
2019-03-03T21:11:51.204Z,8.319702
2019-03-03T21:15:19.078Z,8.370056
2019-03-03T21:18:46.984Z,8.460693
2019-03-03T21:22:14.890Z,8.561401
2019-03-03T21:25:42.790Z,8.631897
2019-03-03T21:29:11.689Z,8.742676
2019-03-03T21:32:39.603Z,8.772888
2019-03-03T21:36:07.514Z,8.853455
2019-03-03T21:39:35.402Z,8.964233
2019-03-03T21:43:03.297Z,9.0448
2019-03-03T21:46:31.210Z,9.085083
2019-03-03T21:50:00.170Z,9.105225
2019-03-03T21:53:28.982Z,9.155579
2019-03-03T21:56:56.892Z,9.236145
2019-03-03T22:00:24.882Z,9.286499
2019-03-03T22:03:52.768Z,9.356995
2019-03-03T22:07:20.671Z,9.367065
2019-03-03T22:10:48.573Z,9.356995
2019-03-03T22:14:16.458Z,9.447632
2019-03-03T22:17:44.350Z,9.447632
2019-03-03T22:21:12.257Z,9.467773
2019-03-03T22:24:40.147Z,9.477844
2019-03-03T22:28:09.034Z,9.497986
2019-03-03T22:31:36.947Z,9.568481
2019-03-03T22:35:04.830Z,9.518127
2019-03-03T22:38:33.723Z,9.588623
2019-03-03T22:42:01.627Z,9.588623
2019-03-03T22:45:29.525Z,9.588623
2019-03-03T22:48:57.408Z,9.588623
2019-03-03T22:52:25.311Z,9.628906
2019-03-03T22:55:53.268Z,9.669189
2019-03-03T22:59:21.160Z,9.618835
